Time;durP1;ratioP1;P1;durP2;ratioP2;P2;SDS_P1;SDS_P2;PMS_P1;PMS_P2;Temp;Humidity;BMP_temperature;BMP_pressure;BME280_temperature;BME280_humidity;BME280_pressure;Samples;Min_cycle;Max_cycle;Signal;HPM_P1;HPM_P2
2021/12/16 00:02:08;;;;;;;2.75;2.45;;;7.90;99.90;;;;;;5091142;28;20035;-85
2021/12/16 00:07:27;;;;;;;2.93;2.53;;;7.90;99.90;;;;;;5093306;28;20043;-81
2021/12/16 00:31:47;;;;;;;6.70;2.92;;;8.10;99.90;;;;;;5091467;28;20050;-84
2021/12/16 00:34:14;;;;;;;3.92;3.53;;;8.10;99.90;;;;;;5079086;28;20021;-83
2021/12/16 00:36:42;;;;;;;4.40;3.70;;;8.10;99.90;;;;;;5087456;28;20024;-84
2021/12/16 00:39:16;;;;;;;3.78;3.47;;;8.10;99.90;;;;;;5090932;28;20031;-82
2021/12/16 00:41:44;;;;;;;4.22;3.40;;;8.10;99.90;;;;;;5092400;28;20071;-83
2021/12/16 00:54:44;;;;;;;3.95;3.45;;;8.20;99.90;;;;;;5091538;28;20120;-80
2021/12/16 00:57:14;;;;;;;4.28;3.58;;;8.20;99.90;;;;;;5091035;28;20038;-80
2021/12/16 00:59:44;;;;;;;4.82;3.83;;;8.20;99.90;;;;;;5090964;28;20115;-79
2021/12/16 01:02:34;;;;;;;4.18;3.78;;;8.30;99.90;;;;;;5086610;28;20024;-79
2021/12/16 01:05:44;;;;;;;3.60;3.30;;;8.20;99.90;;;;;;5090963;28;20056;-80
2021/12/16 01:36:14;;;;;;;4.22;3.78;;;8.20;99.90;;;;;;5088670;28;20035;-79
2021/12/16 01:56:52;;;;;;;4.80;2.67;;;8.30;99.90;;;;;;5089834;28;19912;-81
2021/12/16 01:59:21;;;;;;;2.75;2.53;;;8.30;99.90;;;;;;5091489;28;20103;-80
2021/12/16 02:01:48;;;;;;;3.00;2.40;;;8.30;99.90;;;;;;5102204;28;20024;-79
2021/12/16 02:04:27;;;;;;;2.72;2.53;;;8.40;99.90;;;;;;5085705;28;20028;-80
2021/12/16 02:09:29;;;;;;;3.30;2.78;;;8.50;99.90;;;;;;5091278;28;20044;-80
2021/12/16 02:36:38;;;;;;;4.57;2.35;;;7.70;99.90;;;;;;5088395;28;20119;-81
2021/12/16 02:39:27;;;;;;;2.42;2.22;;;7.70;99.90;;;;;;5089331;28;20106;-81
2021/12/16 02:42:04;;;;;;;4.13;2.78;;;7.70;99.90;;;;;;5085216;28;20052;-80
2021/12/16 02:49:46;;;;;;;2.90;2.60;;;8.00;99.90;;;;;;5089002;28;20051;-79
2021/12/16 02:52:15;;;;;;;2.83;2.55;;;8.00;99.90;;;;;;5089068;28;20028;-80
2021/12/16 02:54:41;;;;;;;3.33;2.58;;;7.90;99.90;;;;;;5084293;28;20028;-79
2021/12/16 02:57:07;;;;;;;2.70;2.45;;;7.90;99.90;;;;;;5089197;28;20531;-80
2021/12/16 02:59:33;;;;;;;3.55;2.90;;;7.90;99.90;;;;;;5083739;28;20034;-80
2021/12/16 03:02:10;;;;;;;3.78;3.47;;;7.90;99.90;;;;;;5086551;28;20119;-80
2021/12/16 03:04:37;;;;;;;4.05;3.65;;;7.80;99.90;;;;;;5082261;28;20032;-80
2021/12/16 03:07:05;;;;;;;4.65;3.67;;;7.80;99.90;;;;;;5087826;28;20040;-80
2021/12/16 03:10:05;;;;;;;4.22;3.60;;;7.80;99.90;;;;;;5088923;28;20017;-79
2021/12/16 03:15:20;;;;;;;4.80;3.50;;;7.70;99.90;;;;;;5086401;28;20071;-79
2021/12/16 03:38:46;;;;;;;3.97;2.90;;;7.80;99.90;;;;;;5090747;28;20437;-81
2021/12/16 03:41:13;;;;;;;3.17;2.50;;;7.80;99.90;;;;;;5088117;28;20190;-80
2021/12/16 03:43:39;;;;;;;3.22;2.80;;;7.80;99.90;;;;;;5089338;28;20024;-80
2021/12/16 03:49:01;;;;;;;3.22;2.60;;;7.90;99.90;;;;;;5091893;28;20067;-80
2021/12/16 03:51:38;;;;;;;2.83;2.63;;;7.90;99.90;;;;;;5089101;28;20383;-80
2021/12/16 03:54:23;;;;;;;2.65;2.45;;;7.90;99.90;;;;;;5090086;28;20039;-80
2021/12/16 03:56:50;;;;;;;2.95;2.65;;;7.90;99.90;;;;;;5090470;28;20433;-80
2021/12/16 03:59:25;;;;;;;2.63;2.42;;;7.90;99.90;;;;;;5092021;28;20043;-80
2021/12/16 04:01:53;;;;;;;2.95;2.63;;;8.00;99.90;;;;;;5090739;28;20142;-81
2021/12/16 04:04:19;;;;;;;2.88;2.63;;;8.10;99.90;;;;;;5092228;28;20143;-80
2021/12/16 04:06:45;;;;;;;3.25;2.65;;;8.10;99.90;;;;;;5090392;28;20475;-81
2021/12/16 04:09:13;;;;;;;3.00;2.78;;;8.20;99.90;;;;;;5093263;28;20027;-80
2021/12/16 04:11:43;;;;;;;3.13;2.80;;;8.20;99.90;;;;;;5091842;28;20020;-81
2021/12/16 04:14:12;;;;;;;3.20;2.90;;;8.20;99.90;;;;;;5089860;28;20032;-81
2021/12/16 04:16:52;;;;;;;3.42;2.75;;;8.20;99.90;;;;;;5091520;28;20024;-80
2021/12/16 04:19:21;;;;;;;3.05;2.75;;;8.20;99.90;;;;;;5091924;28;20016;-81
2021/12/16 04:21:59;;;;;;;3.42;2.88;;;8.20;99.90;;;;;;5088621;28;20537;-80
2021/12/16 04:24:26;;;;;;;3.42;2.70;;;8.20;99.90;;;;;;5090220;28;20024;-81
2021/12/16 04:26:54;;;;;;;3.85;2.80;;;8.20;99.90;;;;;;5090169;28;20563;-82
2021/12/16 04:29:23;;;;;;;3.08;2.78;;;8.30;99.90;;;;;;5078842;28;20382;-81
2021/12/16 04:31:51;;;;;;;3.50;3.20;;;8.30;99.90;;;;;;5090518;28;20073;-81
2021/12/16 04:34:16;;;;;;;5.95;3.00;;;8.30;99.90;;;;;;5093097;28;20047;-81
2021/12/16 04:36:43;;;;;;;3.28;2.97;;;8.30;99.90;;;;;;5091723;28;20504;-81
2021/12/16 04:39:13;;;;;;;3.38;2.95;;;8.20;99.90;;;;;;5090767;28;20031;-81
2021/12/16 04:41:40;;;;;;;3.47;3.17;;;8.20;99.90;;;;;;5087873;28;20040;-81
2021/12/16 04:44:15;;;;;;;3.15;2.85;;;8.20;99.90;;;;;;5085029;28;20024;-81
2021/12/16 04:46:42;;;;;;;3.25;2.95;;;8.10;99.90;;;;;;5076789;28;20087;-81
2021/12/16 04:49:09;;;;;;;3.92;3.08;;;8.10;99.90;;;;;;5087456;28;20326;-81
2021/12/16 04:51:39;;;;;;;4.30;3.15;;;8.10;99.90;;;;;;5090887;28;20255;-81
2021/12/16 04:54:06;;;;;;;3.38;3.03;;;8.10;99.90;;;;;;5090116;28;20161;-81
2021/12/16 04:56:33;;;;;;;3.60;3.00;;;8.10;99.90;;;;;;5089719;28;20020;-80
2021/12/16 04:59:00;;;;;;;6.63;3.35;;;8.10;99.90;;;;;;5089709;28;20131;-81
2021/12/16 05:01:26;;;;;;;3.10;2.80;;;8.10;99.90;;;;;;5087003;28;20028;-80
2021/12/16 05:03:53;;;;;;;4.53;3.35;;;8.10;99.90;;;;;;5090937;28;20040;-81
2021/12/16 05:06:18;;;;;;;4.03;3.33;;;8.00;99.90;;;;;;5089656;28;20431;-81
2021/12/16 05:08:44;;;;;;;3.47;3.17;;;8.00;99.90;;;;;;5090321;28;20041;-81
2021/12/16 05:11:14;;;;;;;4.72;3.90;;;8.00;99.90;;;;;;5090852;28;20483;-81
2021/12/16 05:13:42;;;;;;;2.78;2.58;;;8.10;99.90;;;;;;5091296;28;20089;-81
2021/12/16 05:16:08;;;;;;;3.60;2.92;;;8.10;99.90;;;;;;5090791;28;20032;-80
2021/12/16 05:18:37;;;;;;;3.55;3.22;;;8.10;99.90;;;;;;5087227;28;20360;-81
2021/12/16 05:21:39;;;;;;;3.60;3.22;;;8.10;99.90;;;;;;5085209;28;20475;-81
2021/12/16 05:24:17;;;;;;;3.58;3.17;;;8.00;99.90;;;;;;5082037;28;20505;-81
2021/12/16 05:26:44;;;;;;;4.32;3.13;;;8.10;99.90;;;;;;5090870;28;20716;-81
2021/12/16 05:29:11;;;;;;;4.20;3.33;;;8.10;99.90;;;;;;5090786;28;20036;-81
2021/12/16 05:31:37;;;;;;;3.80;3.50;;;8.00;99.90;;;;;;5088387;28;20107;-81
2021/12/16 05:34:05;;;;;;;4.00;3.28;;;8.00;99.90;;;;;;5089468;28;20123;-81
2021/12/16 05:36:30;;;;;;;4.28;3.25;;;8.00;99.90;;;;;;5086514;28;20368;-80
2021/12/16 05:38:57;;;;;;;3.42;3.13;;;8.00;99.90;;;;;;5091652;28;20093;-81
2021/12/16 05:41:24;;;;;;;5.18;3.97;;;8.00;99.90;;;;;;5090617;28;20056;-80
2021/12/16 05:43:51;;;;;;;4.85;4.05;;;8.10;99.90;;;;;;5087991;28;20052;-80
2021/12/16 05:46:19;;;;;;;3.80;3.50;;;8.10;99.90;;;;;;5088316;28;20511;-80
2021/12/16 05:48:48;;;;;;;3.85;3.20;;;8.10;99.90;;;;;;5090983;28;20024;-80
2021/12/16 05:51:19;;;;;;;5.85;2.92;;;8.10;99.90;;;;;;5090058;28;20466;-81
2021/12/16 05:53:45;;;;;;;3.78;3.20;;;8.10;99.90;;;;;;5086830;28;20526;-80
2021/12/16 05:56:12;;;;;;;3.83;3.38;;;8.10;99.90;;;;;;5089306;28;20081;-81
2021/12/16 05:58:39;;;;;;;4.70;3.60;;;8.10;99.90;;;;;;5086823;28;20039;-81
2021/12/16 06:01:09;;;;;;;4.20;3.80;;;8.10;99.90;;;;;;5090659;28;20016;-80
2021/12/16 06:03:36;;;;;;;3.50;3.20;;;8.10;99.90;;;;;;5089893;28;20016;-81
2021/12/16 06:06:02;;;;;;;3.75;3.35;;;8.00;99.90;;;;;;5089254;28;20036;-81
2021/12/16 06:08:28;;;;;;;4.35;3.05;;;8.00;99.90;;;;;;5090326;28;20020;-82
2021/12/16 06:13:44;;;;;;;3.78;3.35;;;8.10;99.90;;;;;;5090812;28;20051;-82
2021/12/16 06:27:16;;;;;;;4.28;3.47;;;8.10;99.90;;;;;;5083014;28;20414;-82
2021/12/16 06:29:47;;;;;;;4.43;3.08;;;8.10;99.90;;;;;;5083660;28;20028;-82
2021/12/16 06:32:14;;;;;;;4.65;3.60;;;8.10;99.90;;;;;;5078347;28;20092;-82
2021/12/16 06:34:41;;;;;;;6.45;5.35;;;8.10;99.90;;;;;;5088617;28;20047;-82
2021/12/16 06:37:07;;;;;;;4.43;3.40;;;8.00;99.90;;;;;;5090685;28;20024;-82
2021/12/16 06:39:33;;;;;;;4.10;3.38;;;8.00;99.90;;;;;;5088679;28;20032;-82
2021/12/16 06:41:59;;;;;;;4.07;3.25;;;8.10;99.90;;;;;;5083962;28;20096;-81
2021/12/16 06:44:30;;;;;;;3.85;3.47;;;8.10;99.90;;;;;;5097081;28;20395;-82
2021/12/16 06:47:03;;;;;;;4.60;2.95;;;8.10;99.90;;;;;;5088697;28;20036;-82
2021/12/16 06:49:30;;;;;;;4.97;4.45;;;8.10;99.90;;;;;;5090751;28;20016;-82
2021/12/16 06:52:03;;;;;;;5.63;3.58;;;8.00;99.90;;;;;;5088352;28;20394;-81
2021/12/16 06:54:36;;;;;;;4.40;3.75;;;8.00;99.90;;;;;;5086960;28;20035;-82
2021/12/16 06:57:18;;;;;;;5.80;3.95;;;8.00;99.90;;;;;;5088663;28;20028;-82
2021/12/16 07:00:07;;;;;;;4.05;3.65;;;7.90;99.90;;;;;;5091269;28;20016;-87
2021/12/16 07:05:01;;;;;;;3.97;3.38;;;8.00;99.90;;;;;;5093729;28;20032;-81
2021/12/16 07:07:26;;;;;;;4.43;3.67;;;8.00;99.90;;;;;;5094356;28;20040;-80
2021/12/16 07:09:52;;;;;;;3.60;3.30;;;8.00;99.90;;;;;;5091935;28;20451;-80
2021/12/16 07:12:26;;;;;;;4.35;3.17;;;8.00;99.90;;;;;;5092910;28;20028;-81
2021/12/16 07:14:52;;;;;;;3.92;3.08;;;8.10;99.90;;;;;;5093514;28;20043;-82
2021/12/16 07:17:18;;;;;;;3.13;2.83;;;8.10;99.90;;;;;;5093582;28;20028;-81
2021/12/16 07:19:45;;;;;;;3.72;3.13;;;8.10;99.90;;;;;;5092451;28;20039;-92
2021/12/16 07:22:12;;;;;;;4.65;3.15;;;8.20;99.90;;;;;;5093225;28;20061;-80
2021/12/16 07:24:38;;;;;;;3.33;2.78;;;8.30;99.90;;;;;;5090896;28;20030;-81
2021/12/16 07:27:05;;;;;;;3.72;3.03;;;8.40;99.90;;;;;;5093068;28;20082;-80
2021/12/16 07:29:30;;;;;;;3.45;3.15;;;8.40;99.90;;;;;;5092280;28;20027;-81
2021/12/16 07:31:59;;;;;;;4.38;2.92;;;8.40;99.90;;;;;;5091650;28;20555;-80
2021/12/16 07:34:25;;;;;;;4.22;3.25;;;8.50;99.90;;;;;;5087234;28;20035;-78
2021/12/16 07:36:51;;;;;;;3.25;2.97;;;8.50;99.90;;;;;;5092234;28;20028;-79
2021/12/16 07:39:19;;;;;;;4.10;3.20;;;8.50;99.90;;;;;;5094057;28;20024;-78
2021/12/16 07:41:51;;;;;;;5.25;3.30;;;8.50;99.90;;;;;;5078523;28;20110;-80
2021/12/16 07:44:17;;;;;;;3.92;3.28;;;8.50;99.90;;;;;;5090674;28;20107;-80
2021/12/16 07:46:48;;;;;;;5.22;3.53;;;8.60;99.90;;;;;;5092817;28;20118;-78
2021/12/16 07:49:21;;;;;;;4.80;3.30;;;8.60;99.90;;;;;;5093286;28;20028;-78
2021/12/16 07:51:47;;;;;;;6.30;3.50;;;8.60;99.90;;;;;;5092951;28;20259;-78
2021/12/16 07:54:15;;;;;;;4.15;3.75;;;8.60;99.90;;;;;;5093241;28;20081;-78
2021/12/16 07:56:42;;;;;;;5.43;3.67;;;8.70;99.90;;;;;;5091278;28;20029;-78
2021/12/16 07:59:08;;;;;;;4.13;3.00;;;8.80;99.90;;;;;;5088792;28;20032;-80
2021/12/16 08:01:40;;;;;;;4.00;3.20;;;8.80;99.90;;;;;;5087254;28;20028;-78
2021/12/16 08:04:06;;;;;;;4.82;3.15;;;8.90;99.90;;;;;;5084410;28;20081;-78
2021/12/16 08:06:33;;;;;;;4.15;3.17;;;9.00;99.90;;;;;;5088434;28;20044;-79
2021/12/16 08:09:03;;;;;;;4.30;3.90;;;9.10;99.90;;;;;;5091078;28;20122;-80
2021/12/16 08:11:33;;;;;;;4.95;3.60;;;9.10;99.90;;;;;;5089208;28;20080;-79
2021/12/16 08:13:59;;;;;;;4.68;3.60;;;9.10;99.90;;;;;;5079736;28;20025;-80
2021/12/16 08:16:25;;;;;;;4.25;3.42;;;9.20;99.90;;;;;;5089070;28;20020;-78
2021/12/16 08:18:52;;;;;;;3.45;3.08;;;9.30;99.90;;;;;;5093349;28;20168;-79
2021/12/16 08:21:19;;;;;;;3.75;3.13;;;9.40;99.90;;;;;;5090212;28;20032;-78
2021/12/16 08:23:45;;;;;;;4.45;3.15;;;9.40;99.90;;;;;;5093046;28;20023;-78
2021/12/16 08:26:11;;;;;;;3.63;2.78;;;9.50;99.90;;;;;;5092507;28;20418;-78
2021/12/16 08:28:37;;;;;;;4.07;3.40;;;9.50;99.90;;;;;;5088028;28;20031;-79
2021/12/16 08:31:06;;;;;;;6.25;2.95;;;9.60;99.90;;;;;;5084653;28;20036;-79
2021/12/16 08:33:33;;;;;;;4.35;3.47;;;9.70;99.90;;;;;;5090843;28;20388;-78
2021/12/16 08:35:58;;;;;;;3.17;2.88;;;9.70;99.90;;;;;;5092063;28;20032;-78
2021/12/16 08:38:26;;;;;;;4.32;3.38;;;9.70;99.90;;;;;;5092904;28;20043;-79
2021/12/16 08:40:56;;;;;;;4.63;3.42;;;9.80;99.90;;;;;;5092075;28;20059;-78
2021/12/16 08:43:24;;;;;;;10.45;4.43;;;9.80;99.90;;;;;;5095209;28;20073;-78
2021/12/16 08:45:50;;;;;;;4.00;3.45;;;9.80;99.90;;;;;;5091665;28;20074;-78
2021/12/16 08:48:16;;;;;;;3.55;3.20;;;9.80;99.90;;;;;;5092501;28;20060;-78
2021/12/16 08:50:49;;;;;;;8.13;3.65;;;9.90;99.90;;;;;;5090935;28;20483;-77
2021/12/16 08:53:17;;;;;;;3.90;3.30;;;9.90;99.90;;;;;;5086447;28;20032;-78
2021/12/16 08:55:45;;;;;;;3.85;3.55;;;10.00;99.90;;;;;;5086939;28;20042;-80
2021/12/16 08:58:11;;;;;;;4.45;3.20;;;10.00;99.90;;;;;;5084356;28;20024;-78
2021/12/16 09:00:44;;;;;;;3.53;3.13;;;10.00;99.90;;;;;;5091549;28;20028;-78
2021/12/16 09:03:10;;;;;;;5.20;3.13;;;10.10;99.90;;;;;;5085266;28;20034;-78
2021/12/16 09:05:36;;;;;;;4.10;3.22;;;10.20;99.90;;;;;;5089340;28;20036;-78
2021/12/16 09:08:03;;;;;;;3.55;3.22;;;10.20;99.90;;;;;;5088216;28;20442;-78
2021/12/16 09:10:31;;;;;;;3.53;3.03;;;10.30;99.90;;;;;;5089750;28;20039;-79
2021/12/16 09:13:02;;;;;;;8.32;5.00;;;10.40;99.90;;;;;;5087890;28;20024;-78
2021/12/16 09:15:37;;;;;;;5.45;3.33;;;10.40;99.90;;;;;;5087395;28;20093;-78
2021/12/16 09:18:05;;;;;;;4.97;3.65;;;10.50;99.90;;;;;;5088169;28;20441;-78
2021/12/16 09:20:32;;;;;;;3.50;3.20;;;10.50;99.90;;;;;;5085353;28;20655;-78
2021/12/16 09:22:58;;;;;;;4.40;2.58;;;10.50;99.90;;;;;;5086458;28;20063;-78
2021/12/16 09:25:25;;;;;;;4.85;3.30;;;10.60;99.90;;;;;;5088414;28;20028;-79
2021/12/16 09:27:51;;;;;;;2.80;2.60;;;10.50;99.90;;;;;;5089617;28;20040;-79
2021/12/16 09:30:21;;;;;;;6.45;3.70;;;10.50;99.90;;;;;;5088384;28;20052;-78
2021/12/16 09:32:49;;;;;;;3.53;3.10;;;10.60;99.90;;;;;;5088829;28;20028;-78
2021/12/16 09:35:15;;;;;;;4.18;2.83;;;10.60;99.90;;;;;;5088335;28;20483;-78
2021/12/16 09:37:41;;;;;;;5.20;3.30;;;10.50;99.90;;;;;;5088150;28;20024;-78
2021/12/16 09:40:12;;;;;;;3.30;3.00;;;10.60;99.90;;;;;;5085984;28;20415;-78
2021/12/16 09:42:39;;;;;;;2.92;2.65;;;10.50;99.90;;;;;;5088124;28;20055;-78
2021/12/16 09:45:08;;;;;;;4.20;2.90;;;10.60;99.90;;;;;;5087917;28;20032;-78
2021/12/16 09:47:35;;;;;;;3.30;2.97;;;10.60;99.90;;;;;;5084185;28;20445;-78
2021/12/16 09:50:07;;;;;;;3.65;3.08;;;10.60;99.90;;;;;;5087099;28;20017;-78
2021/12/16 09:52:33;;;;;;;4.13;3.30;;;10.70;99.90;;;;;;5087118;28;20040;-79
2021/12/16 09:54:59;;;;;;;3.60;2.50;;;10.70;99.90;;;;;;5083866;28;20032;-78
2021/12/16 09:57:25;;;;;;;3.80;3.30;;;10.70;99.90;;;;;;5087186;28;20020;-78
2021/12/16 09:59:51;;;;;;;4.55;2.75;;;10.80;99.90;;;;;;5081039;28;20236;-78
2021/12/16 10:02:20;;;;;;;4.72;2.90;;;10.90;99.90;;;;;;5081947;28;20028;-78
2021/12/16 10:04:46;;;;;;;4.07;3.50;;;10.90;99.90;;;;;;5086572;28;20031;-78
2021/12/16 10:07:21;;;;;;;4.30;3.40;;;11.00;99.90;;;;;;5081960;28;20063;-78
2021/12/16 10:09:51;;;;;;;4.10;3.30;;;11.10;99.90;;;;;;5086657;28;20050;-78
2021/12/16 10:12:20;;;;;;;3.70;3.30;;;11.10;99.90;;;;;;5085409;28;20168;-78
2021/12/16 10:17:25;;;;;;;3.85;3.00;;;11.10;99.90;;;;;;5087882;28;20063;-78
2021/12/16 10:19:53;;;;;;;6.68;2.97;;;11.10;99.90;;;;;;5083451;28;20028;-78
2021/12/16 10:22:21;;;;;;;3.70;3.05;;;11.10;99.90;;;;;;5087812;28;20032;-78
2021/12/16 10:24:49;;;;;;;3.63;3.33;;;11.20;99.90;;;;;;5083331;28;20124;-78
2021/12/16 10:27:21;;;;;;;6.43;3.47;;;11.20;99.90;;;;;;5086881;28;20589;-78
2021/12/16 10:29:55;;;;;;;2.92;2.63;;;11.20;99.90;;;;;;5087362;28;20028;-78
2021/12/16 10:32:43;;;;;;;2.80;2.40;;;11.20;99.90;;;;;;5085301;28;20028;-78
2021/12/16 10:35:15;;;;;;;6.65;2.88;;;11.30;99.90;;;;;;5087180;28;20059;-78
2021/12/16 10:37:58;;;;;;;3.22;2.80;;;11.30;99.90;;;;;;5085424;28;20107;-78
2021/12/16 10:40:43;;;;;;;4.45;2.92;;;11.30;99.90;;;;;;5085344;28;20079;-78
2021/12/16 10:43:34;;;;;;;3.40;3.10;;;11.30;99.90;;;;;;5081038;28;20512;-78
2021/12/16 10:46:10;;;;;;;5.18;3.10;;;11.40;99.90;;;;;;5086728;28;20055;-77
2021/12/16 10:48:42;;;;;;;3.83;3.50;;;11.50;99.90;;;;;;5085638;28;20036;-77
2021/12/16 10:51:11;;;;;;;4.50;3.05;;;11.50;99.90;;;;;;5086648;28;20027;-78
2021/12/16 10:53:55;;;;;;;3.30;2.97;;;11.50;99.90;;;;;;5081350;28;20025;-77
2021/12/16 10:56:38;;;;;;;4.35;3.00;;;11.60;99.90;;;;;;5086992;28;20069;-77
2021/12/16 10:59:20;;;;;;;4.40;3.97;;;11.60;99.90;;;;;;5087072;28;20040;-77
2021/12/16 11:02:08;;;;;;;3.55;3.20;;;11.70;99.90;;;;;;5083586;28;20388;-76
2021/12/16 11:04:48;;;;;;;3.58;3.28;;;11.80;99.90;;;;;;5084351;28;20123;-77
2021/12/16 11:07:25;;;;;;;3.97;3.50;;;11.70;99.90;;;;;;5078368;28;20036;-79
2021/12/16 11:10:11;;;;;;;3.70;3.40;;;11.70;99.90;;;;;;5082631;28;20024;-78
2021/12/16 11:12:46;;;;;;;4.07;3.00;;;11.70;99.90;;;;;;5085197;28;20107;-79
2021/12/16 11:15:31;;;;;;;4.63;3.50;;;11.80;99.90;;;;;;5087484;28;20098;-77
2021/12/16 11:18:13;;;;;;;3.53;2.78;;;11.70;99.90;;;;;;5082479;28;20136;-78
2021/12/16 11:20:55;;;;;;;3.55;2.50;;;11.80;99.90;;;;;;5082420;28;20146;-77
2021/12/16 11:23:26;;;;;;;3.20;2.45;;;11.80;99.90;;;;;;5076411;28;20099;-78
2021/12/16 11:26:05;;;;;;;4.45;3.22;;;11.80;99.90;;;;;;5084586;28;20040;-78
2021/12/16 11:28:37;;;;;;;3.85;3.33;;;11.80;99.90;;;;;;5083450;28;20028;-78
2021/12/16 11:31:10;;;;;;;3.05;2.75;;;11.90;99.90;;;;;;5087343;28;20039;-77
2021/12/16 11:33:39;;;;;;;3.03;2.65;;;11.90;99.90;;;;;;5087584;28;20505;-78
2021/12/16 11:36:05;;;;;;;4.45;2.60;;;12.00;99.90;;;;;;5082928;28;20027;-78
2021/12/16 11:38:38;;;;;;;3.33;2.83;;;12.10;99.90;;;;;;5082196;28;20491;-78
2021/12/16 11:41:04;;;;;;;3.63;2.80;;;12.00;99.90;;;;;;5085385;28;20044;-78
2021/12/16 11:43:33;;;;;;;3.45;3.00;;;12.10;99.90;;;;;;5085957;28;20397;-81
2021/12/16 11:45:59;;;;;;;3.00;2.70;;;12.20;99.90;;;;;;5088038;28;20031;-76
2021/12/16 11:48:31;;;;;;;2.90;2.50;;;12.10;99.90;;;;;;5091109;28;20389;-78
2021/12/16 11:51:11;;;;;;;2.60;2.30;;;12.10;99.90;;;;;;5089809;28;20426;-78
2021/12/16 11:53:46;;;;;;;2.78;2.47;;;12.10;99.90;;;;;;5091305;28;20381;-78
2021/12/16 11:56:12;;;;;;;2.58;2.38;;;12.10;99.90;;;;;;5088815;28;20035;-78
2021/12/16 11:58:44;;;;;;;3.30;2.58;;;12.10;99.90;;;;;;5091201;28;20115;-78
2021/12/16 12:01:17;;;;;;;4.72;2.00;;;12.10;99.90;;;;;;5090168;28;20040;-80
2021/12/16 12:03:43;;;;;;;2.67;2.47;;;12.30;99.90;;;;;;5089166;28;20087;-78
2021/12/16 12:06:25;;;;;;;3.42;2.47;;;12.70;99.90;;;;;;5089525;28;20040;-78
2021/12/16 12:08:52;;;;;;;3.10;2.33;;;13.00;99.90;;;;;;5090613;28;20020;-78
2021/12/16 12:11:29;;;;;;;4.28;2.10;;;13.50;99.90;;;;;;5090247;28;20038;-76
2021/12/16 12:14:00;;;;;;;2.45;2.10;;;14.50;99.90;;;;;;5089019;28;20032;-80
2021/12/16 12:16:35;;;;;;;2.80;2.05;;;14.20;99.90;;;;;;5086991;28;20028;-77
2021/12/16 12:19:24;;;;;;;2.58;1.85;;;13.90;99.90;;;;;;5091744;28;20024;-77
2021/12/16 12:21:55;;;;;;;2.45;2.08;;;13.80;99.90;;;;;;5092670;28;20112;-80
2021/12/16 12:24:37;;;;;;;1.88;1.77;;;14.10;99.90;;;;;;5089183;28;20093;-77
2021/12/16 12:27:11;;;;;;;1.70;1.60;;;14.50;99.90;;;;;;5090631;28;20044;-76
2021/12/16 12:30:11;;;;;;;4.95;1.63;;;15.60;99.90;;;;;;5091660;28;20027;-77
2021/12/16 12:32:43;;;;;;;1.70;1.60;;;17.40;98.50;;;;;;5083334;28;20406;-78
2021/12/16 12:35:15;;;;;;;1.88;1.73;;;19.00;93.30;;;;;;5091386;28;20020;-78
2021/12/16 12:37:47;;;;;;;1.83;1.73;;;19.40;90.90;;;;;;5086328;28;20070;-78
2021/12/16 12:40:27;;;;;;;1.80;1.70;;;19.60;87.40;;;;;;5092488;28;20047;-78
2021/12/16 12:42:54;;;;;;;3.05;1.80;;;19.90;83.30;;;;;;5092915;28;20119;-77
2021/12/16 12:45:30;;;;;;;1.60;1.50;;;19.40;83.10;;;;;;5091340;28;20028;-77
2021/12/16 12:47:58;;;;;;;3.03;1.70;;;19.00;83.80;;;;;;5092546;28;20032;-78
2021/12/16 12:50:37;;;;;;;1.70;1.60;;;19.50;82.20;;;;;;5090723;28;20024;-78
2021/12/16 12:53:30;;;;;;;2.00;1.80;;;19.70;79.60;;;;;;5089685;28;20027;-75
2021/12/16 12:56:08;;;;;;;;;;;19.30;79.30;;;;;;5090975;28;20031;-77
2021/12/16 12:58:46;;;;;;;1.60;1.50;;;19.00;80.00;;;;;;5092502;28;19915;-78
2021/12/16 13:01:12;;;;;;;1.92;1.73;;;19.50;77.90;;;;;;5088146;28;20032;-77
2021/12/16 13:03:40;;;;;;;1.85;1.75;;;19.70;75.90;;;;;;5088675;28;20023;-77
2021/12/16 13:06:16;;;;;;;3.60;1.88;;;18.00;80.30;;;;;;5089245;28;20149;-76
2021/12/16 13:08:48;;;;;;;1.80;1.70;;;18.50;80.00;;;;;;5092093;28;20399;-77
2021/12/16 13:11:24;;;;;;;2.50;1.70;;;19.40;77.40;;;;;;5084187;28;20040;-77
2021/12/16 13:14:09;;;;;;;2.08;1.80;;;18.90;77.90;;;;;;5086408;28;20424;-78
2021/12/16 13:26:02;;;;;;;2.17;1.98;;;18.60;76.90;;;;;;5082038;28;20039;-76
2021/12/16 13:31:06;;;;;;;5.15;1.80;;;19.30;75.30;;;;;;5088459;28;20081;-76
2021/12/16 13:33:43;;;;;;;2.30;1.80;;;19.30;74.50;;;;;;5088984;28;20043;-77
2021/12/16 13:36:26;;;;;;;1.90;1.70;;;19.80;73.70;;;;;;5086711;28;20228;-76
2021/12/16 13:38:53;;;;;;;2.20;1.50;;;19.80;73.90;;;;;;5083619;28;20027;-78
2021/12/16 13:41:27;;;;;;;3.33;1.90;;;20.20;71.60;;;;;;5083736;28;20066;-77
2021/12/16 13:43:55;;;;;;;2.20;1.63;;;20.00;71.40;;;;;;5082377;28;20469;-76
2021/12/16 14:05:56;;;;;;;1.55;1.45;;;19.80;72.20;;;;;;5089141;28;20036;-82
2021/12/16 14:08:51;;;;;;;1.70;1.52;;;19.90;70.60;;;;;;5076344;28;20029;-76
2021/12/16 14:15:00;;;;;;;2.28;1.90;;;19.50;71.70;;;;;;5088751;28;20034;-79
2021/12/16 14:17:51;;;;;;;2.17;1.52;;;20.00;69.90;;;;;;5088888;28;20114;-78
2021/12/16 14:23:33;;;;;;;2.10;1.88;;;19.50;70.20;;;;;;5088550;28;20097;-80
2021/12/16 14:47:16;;;;;;;2.78;2.03;;;15.10;87.00;;;;;;5087129;28;20039;-79
2021/12/16 14:49:48;;;;;;;2.25;1.80;;;15.00;85.80;;;;;;5087616;28;20023;-79
2021/12/16 14:52:21;;;;;;;3.05;2.03;;;14.20;87.70;;;;;;5082650;28;20372;-79
2021/12/16 14:54:52;;;;;;;;;;;13.50;90.50;;;;;;5089229;28;20060;-79
2021/12/16 14:57:35;;;;;;;3.55;2.25;;;13.00;91.30;;;;;;5090235;28;19914;-79
2021/12/16 15:00:16;;;;;;;3.00;2.30;;;12.50;92.60;;;;;;5087598;28;20020;-78
2021/12/16 15:02:44;;;;;;;4.05;2.50;;;12.20;93.60;;;;;;5088532;28;20025;-77
2021/12/16 15:05:22;;;;;;;2.88;2.45;;;12.00;94.40;;;;;;5090044;28;20100;-78
2021/12/16 15:07:47;;;;;;;3.90;2.58;;;11.80;95.20;;;;;;5086786;28;20058;-78
2021/12/16 15:10:15;;;;;;;3.33;2.25;;;11.70;96.50;;;;;;5089603;28;20051;-78
2021/12/16 15:12:50;;;;;;;3.33;2.53;;;11.50;96.60;;;;;;5087771;28;20079;-77
2021/12/16 15:40:07;;;;;;;2.60;2.30;;;9.90;99.90;;;;;;5089699;28;20453;-79
2021/12/16 15:42:47;;;;;;;2.63;2.22;;;9.90;99.90;;;;;;5087597;28;20176;-78
2021/12/16 15:45:23;;;;;;;3.13;2.28;;;9.70;99.90;;;;;;5093483;28;20378;-79
2021/12/16 15:48:12;;;;;;;2.38;2.15;;;9.60;99.90;;;;;;5093217;28;20030;-80
2021/12/16 15:50:46;;;;;;;6.07;3.15;;;9.60;99.90;;;;;;5086091;28;20502;-79
2021/12/16 15:53:18;;;;;;;5.03;3.42;;;9.60;99.90;;;;;;5085914;28;20028;-81
2021/12/16 15:55:49;;;;;;;3.60;3.30;;;9.50;99.90;;;;;;5091478;28;20042;-81
2021/12/16 15:58:25;;;;;;;3.10;2.38;;;9.40;99.90;;;;;;5091679;28;20052;-81
2021/12/16 16:00:57;;;;;;;5.38;2.83;;;9.40;99.90;;;;;;5086702;28;20028;-80
2021/12/16 16:03:24;;;;;;;2.45;2.15;;;9.40;99.90;;;;;;5085814;28;20028;-80
2021/12/16 16:05:54;;;;;;;4.65;2.70;;;9.40;99.90;;;;;;5090793;28;20059;-80
2021/12/16 16:08:22;;;;;;;2.83;2.10;;;9.40;99.90;;;;;;5088824;28;20207;-80
2021/12/16 16:10:53;;;;;;;3.03;2.42;;;9.40;99.90;;;;;;5087137;28;20024;-81
2021/12/16 16:13:23;;;;;;;10.77;6.22;;;9.40;99.90;;;;;;5086075;28;20077;-82
2021/12/16 16:15:51;;;;;;;4.07;3.45;;;9.40;99.90;;;;;;5086510;28;20053;-80
2021/12/16 16:21:07;;;;;;;5.55;4.97;;;9.40;99.90;;;;;;5085702;28;20012;-80
2021/12/16 16:23:36;;;;;;;4.13;3.00;;;9.50;99.90;;;;;;5090328;28;20103;-81
2021/12/16 16:26:11;;;;;;;5.63;4.47;;;9.50;99.90;;;;;;5086034;28;20036;-81
2021/12/16 16:28:41;;;;;;;5.88;4.85;;;9.60;99.90;;;;;;5084900;28;20123;-81
2021/12/16 16:31:13;;;;;;;20.75;12.30;;;9.60;99.90;;;;;;5088805;28;20024;-80
2021/12/16 16:33:39;;;;;;;3.47;2.72;;;9.50;99.90;;;;;;5087760;28;20023;-80
2021/12/16 16:36:08;;;;;;;7.63;4.55;;;9.60;99.90;;;;;;5089156;28;20040;-81
2021/12/16 16:38:39;;;;;;;7.22;4.30;;;9.50;99.90;;;;;;5086394;28;20020;-81
2021/12/16 16:41:09;;;;;;;4.97;3.30;;;9.40;99.90;;;;;;5083258;28;20097;-82
2021/12/16 16:43:39;;;;;;;2.28;2.00;;;9.30;99.90;;;;;;5088534;28;20478;-83
2021/12/16 16:46:29;;;;;;;5.70;3.08;;;9.20;99.90;;;;;;5087125;28;20024;-81
2021/12/16 16:51:36;;;;;;;2.60;2.33;;;9.20;99.90;;;;;;5089829;28;20034;-82
2021/12/16 16:54:11;;;;;;;5.82;3.58;;;9.10;99.90;;;;;;5086862;28;20784;-81
2021/12/16 16:56:40;;;;;;;2.95;2.00;;;9.20;99.90;;;;;;5089493;28;20403;-82
2021/12/16 16:59:08;;;;;;;3.25;2.70;;;9.10;99.90;;;;;;5085710;28;20036;-82
2021/12/16 17:01:35;;;;;;;2.88;1.92;;;9.10;99.90;;;;;;5080527;28;20024;-81
2021/12/16 17:04:03;;;;;;;2.90;2.35;;;9.00;99.90;;;;;;5087852;28;20028;-82
2021/12/16 17:06:30;;;;;;;1.65;1.55;;;9.00;99.90;;;;;;5086451;28;20028;-84
2021/12/16 17:08:57;;;;;;;3.42;1.80;;;8.90;99.90;;;;;;5084792;28;20451;-81
2021/12/16 17:11:25;;;;;;;3.85;2.63;;;9.00;99.90;;;;;;5086809;28;20028;-81
2021/12/16 17:14:07;;;;;;;2.22;1.70;;;9.10;99.90;;;;;;5087378;28;20020;-81
2021/12/16 17:19:25;;;;;;;1.67;1.58;;;9.10;99.90;;;;;;5089682;28;20034;-79
2021/12/16 17:21:52;;;;;;;6.63;2.33;;;9.10;99.90;;;;;;5090751;28;20052;-80
2021/12/16 17:24:24;;;;;;;3.85;1.90;;;9.10;99.90;;;;;;5090046;28;20023;-83
2021/12/16 17:26:58;;;;;;;5.60;1.92;;;9.10;99.90;;;;;;5087011;28;20040;-83